createdAt,value
2018-07-07T15:35:59.283Z,49.27
2018-07-07T15:37:00.974Z,48.28
2018-07-07T15:37:59.181Z,46.50
2018-07-07T15:39:00.974Z,46.30
2018-07-07T15:39:48.483Z,47.52
2018-07-07T15:40:50.288Z,49.00
2018-07-07T15:41:50.270Z,47.71
2018-07-07T15:42:50.276Z,47.81
2018-07-07T15:43:49.780Z,47.04
2018-07-07T15:44:49.771Z,47.24
2018-07-07T15:45:49.814Z,46.77
2018-07-07T15:46:49.772Z,50.04
2018-07-07T15:47:49.771Z,47.66
2018-07-07T15:48:49.772Z,47.83
2018-07-07T15:49:49.774Z,47.63
2018-07-07T15:50:49.789Z,48.15
2018-07-07T15:51:49.273Z,48.05
2018-07-07T15:52:49.278Z,48.18
2018-07-07T15:53:49.275Z,50.43
2018-07-07T15:54:49.298Z,49.22
2018-07-07T15:55:49.330Z,49.99
2018-07-07T15:56:49.286Z,46.82
2018-07-07T15:57:49.281Z,46.82
2018-07-07T15:58:48.774Z,47.24
2018-07-07T15:59:48.777Z,47.44
2018-07-07T16:00:48.789Z,48.70
2018-07-07T16:01:48.776Z,50.26
2018-07-07T16:02:48.795Z,47.56
2018-07-07T16:03:48.775Z,48.06
2018-07-07T16:04:48.782Z,47.74
2018-07-07T16:05:46.743Z,47.37
2018-07-07T16:06:48.292Z,46.97
2018-07-07T16:07:48.275Z,52.95
2018-07-07T16:08:48.278Z,44.58
2018-07-07T16:09:52.488Z,47.25
2018-07-07T16:10:58.254Z,45.98
2018-07-07T16:12:00.033Z,49.02
2018-07-07T16:12:58.177Z,46.45
2018-07-07T16:14:00.035Z,50.59
2018-07-07T16:15:00.039Z,45.67
2018-07-07T16:16:00.047Z,48.63
2018-07-07T16:16:58.028Z,44.87
2018-07-07T16:17:59.531Z,45.57
2018-07-07T16:18:59.532Z,44.38
2018-07-07T16:19:59.550Z,44.28
2018-07-07T16:20:59.533Z,44.20
2018-07-07T16:21:59.611Z,44.94
2018-07-07T16:22:59.533Z,45.34
2018-07-07T16:24:00.534Z,45.53
2018-07-07T16:25:00.534Z,46.25
2018-07-07T16:25:59.680Z,46.15
2018-07-07T16:26:59.624Z,46.15
2018-07-07T16:27:57.600Z,45.95
2018-07-07T16:28:59.546Z,46.05
2018-07-07T16:29:59.035Z,45.65
2018-07-07T16:30:59.038Z,46.64
2018-07-07T16:31:59.051Z,46.35
2018-07-07T16:32:59.035Z,46.94
2018-07-07T16:33:59.035Z,46.74
2018-07-07T16:34:59.035Z,46.77
2018-07-07T16:35:59.082Z,46.64
2018-07-07T16:36:59.051Z,46.35
2018-07-07T16:37:59.037Z,46.84
2018-07-07T16:38:59.037Z,44.76
2018-07-07T16:39:59.091Z,44.96
2018-07-07T16:40:58.540Z,44.37
2018-07-07T16:41:58.556Z,44.67
2018-07-07T16:42:58.548Z,44.17
2018-07-07T16:43:58.561Z,44.17
2018-07-07T16:44:58.558Z,44.37
2018-07-07T16:45:58.541Z,43.77
2018-07-07T16:46:58.553Z,43.67
2018-07-07T16:47:58.538Z,43.67
2018-07-07T16:48:58.539Z,43.87
2018-07-07T16:49:58.540Z,46.05
2018-07-07T16:50:58.540Z,46.27
2018-07-07T16:51:58.554Z,46.27
2018-07-07T16:52:58.040Z,46.98
2018-07-07T16:53:58.043Z,47.88
2018-07-07T16:54:58.040Z,46.98
2018-07-07T16:55:58.040Z,47.90
2018-07-07T16:56:58.057Z,47.68
2018-07-07T16:57:58.041Z,48.08
2018-07-07T16:58:58.041Z,48.18
2018-07-07T16:59:58.237Z,48.08
2018-07-07T17:00:58.041Z,48.18
2018-07-07T17:01:58.056Z,48.10
2018-07-07T17:02:58.044Z,48.10
2018-07-07T17:03:58.042Z,48.60
2018-07-07T17:04:58.043Z,48.30
2018-07-07T17:05:58.043Z,48.40
2018-07-07T17:06:56.023Z,48.20
2018-07-07T17:07:57.557Z,49.29
2018-07-07T17:08:57.543Z,48.20
2018-07-07T17:09:57.548Z,48.40
2018-07-07T17:10:57.543Z,48.50
2018-07-07T17:11:57.552Z,47.80
2018-07-07T17:12:57.559Z,48.40
2018-07-07T17:13:57.548Z,48.00
2018-07-07T17:14:57.545Z,48.10
2018-07-07T17:15:57.546Z,48.10
2018-07-07T17:16:57.545Z,48.50
2018-07-07T17:17:57.559Z,48.40
2018-07-07T17:18:57.546Z,48.00
2018-07-07T17:19:57.046Z,47.61
2018-07-07T17:20:57.047Z,47.61
2018-07-07T17:21:57.047Z,47.90
2018-07-07T17:22:57.103Z,48.60
2018-07-07T17:23:57.047Z,48.27
2018-07-07T17:24:58.047Z,48.97
2018-07-07T17:25:57.048Z,50.65
2018-07-07T17:26:57.048Z,47.86
2018-07-07T17:27:57.073Z,48.25
2018-07-07T17:28:58.049Z,48.13
2018-07-07T17:29:57.139Z,47.83
2018-07-07T17:30:57.100Z,46.94
2018-07-07T17:31:57.079Z,46.47
2018-07-07T17:32:57.093Z,46.64
2018-07-07T17:33:57.051Z,46.64
2018-07-07T17:34:55.107Z,46.97
2018-07-07T17:35:57.056Z,46.86
2018-07-07T17:36:57.101Z,46.86
2018-07-07T17:37:56.565Z,46.77
2018-07-07T17:38:56.551Z,46.27
2018-07-07T17:39:56.551Z,46.67
2018-07-07T17:40:56.553Z,45.97
2018-07-07T17:41:56.551Z,46.77
2018-07-07T17:42:56.566Z,46.77
2018-07-07T17:43:56.552Z,48.08
2018-07-07T17:44:56.551Z,47.88
2018-07-07T17:45:56.559Z,47.49
2018-07-07T17:46:56.552Z,46.67
2018-07-07T17:47:56.556Z,47.04
2018-07-07T17:48:56.569Z,47.93
2018-07-07T17:50:02.787Z,47.83
2018-07-07T17:51:04.566Z,47.41
2018-07-07T17:52:04.563Z,48.50
2018-07-07T17:53:04.577Z,48.53
2018-07-07T17:54:04.563Z,47.34
2018-07-07T17:55:05.564Z,47.44
2018-07-07T17:56:04.103Z,47.63
2018-07-07T17:57:04.066Z,48.13
2018-07-07T17:58:04.065Z,47.96
2018-07-07T17:59:04.079Z,48.35
2018-07-07T18:00:04.077Z,47.96
2018-07-07T18:01:04.083Z,48.65
2018-07-07T18:02:04.065Z,48.45
2018-07-07T18:03:02.264Z,48.47
2018-07-07T18:04:04.184Z,48.57
2018-07-07T18:05:04.077Z,48.38
2018-07-07T18:06:04.066Z,48.57
2018-07-07T18:07:04.140Z,49.07
2018-07-07T18:08:03.567Z,48.57
2018-07-07T18:09:03.581Z,48.67
2018-07-07T18:10:03.568Z,48.77
2018-07-07T18:11:04.568Z,48.87
2018-07-07T18:12:03.568Z,49.17
2018-07-07T18:13:03.569Z,48.50
2018-07-07T18:14:03.585Z,48.60
2018-07-07T18:15:03.569Z,48.40
2018-07-07T18:16:03.571Z,49.46
2018-07-07T18:17:03.572Z,49.17
2018-07-07T18:18:03.569Z,49.17
2018-07-07T18:19:03.585Z,49.66
2018-07-07T18:20:04.577Z,49.17
2018-07-07T18:21:03.569Z,48.90
2018-07-07T18:22:03.071Z,49.59
2018-07-07T18:23:03.070Z,50.68
2018-07-07T19:12:44.384Z,57.36
2018-07-07T19:13:46.087Z,57.76
2018-07-07T19:14:46.105Z,57.06
2018-07-07T19:15:46.088Z,57.06
2018-07-07T19:16:46.089Z,57.06
2018-07-07T19:17:46.088Z,57.66
2018-07-07T19:18:46.089Z,57.46
2018-07-07T19:19:46.104Z,58.39
2018-07-07T19:20:46.088Z,58.28
2018-07-07T19:21:46.089Z,58.78
2018-07-07T19:22:46.091Z,58.09
2018-07-07T19:23:45.100Z,57.99
2018-07-07T19:24:46.105Z,58.69
2018-07-07T19:25:46.090Z,58.48
2018-07-07T19:26:46.090Z,58.11
2018-07-07T19:27:46.093Z,59.01
2018-07-07T19:28:46.106Z,59.61
2018-07-07T19:29:46.090Z,59.91
2018-07-07T19:30:46.106Z,59.53
2018-07-07T19:31:46.091Z,59.53
2018-07-07T19:32:46.091Z,61.13
2018-07-07T19:33:46.091Z,60.43
2018-07-07T19:34:46.092Z,60.86
2018-07-07T19:35:46.110Z,61.16
2018-07-07T19:36:46.094Z,61.66
2018-07-07T19:37:46.092Z,60.96
2018-07-07T19:38:46.592Z,60.96
2018-07-07T19:39:46.593Z,61.39
2018-07-07T19:40:45.700Z,60.99
2018-07-07T19:41:45.863Z,60.89
2018-07-07T19:42:45.608Z,62.59
2018-07-07T19:43:45.593Z,62.59
2018-07-07T19:44:45.593Z,61.79
2018-07-07T19:45:45.607Z,62.08
2018-07-07T19:46:45.611Z,62.38
2018-07-07T19:47:45.594Z,62.61
2018-07-07T19:48:45.594Z,64.41
2018-07-07T19:49:45.604Z,64.31
2018-07-07T19:50:45.609Z,64.11
2018-07-07T19:51:46.632Z,64.21
2018-07-07T19:52:45.100Z,64.21
2018-07-07T19:53:45.713Z,64.41
2018-07-07T19:54:45.596Z,64.21
2018-07-07T19:55:45.611Z,64.61
2018-07-07T19:56:45.600Z,63.91
2018-07-07T19:57:45.596Z,64.07
2018-07-07T19:58:45.596Z,63.48
2018-07-07T19:59:45.596Z,63.38
2018-07-07T20:00:45.616Z,63.68
2018-07-07T20:01:45.597Z,63.08
2018-07-07T20:02:45.606Z,62.98
2018-07-07T20:03:45.597Z,62.98
2018-07-07T20:04:45.598Z,62.48
2018-07-07T20:05:45.615Z,63.08
2018-07-07T20:06:45.598Z,63.18
2018-07-07T20:07:45.609Z,62.88
2018-07-07T20:08:45.598Z,63.38
2018-07-07T20:09:45.599Z,62.48
2018-07-07T20:10:45.616Z,62.26
2018-07-07T20:11:45.599Z,62.29
2018-07-07T20:12:45.599Z,62.38
2018-07-07T20:13:45.599Z,62.38
2018-07-07T20:14:45.600Z,62.29
2018-07-07T20:15:45.614Z,62.59
2018-07-07T20:16:45.600Z,62.26
2018-07-07T20:17:45.600Z,62.38
2018-07-07T20:18:45.674Z,62.38
2018-07-07T20:19:45.604Z,62.78
2018-07-07T20:20:43.653Z,62.38
2018-07-07T20:21:45.601Z,62.48
2018-07-07T20:22:45.603Z,62.18
2018-07-07T20:23:45.103Z,62.48
2018-07-07T20:24:45.105Z,62.48
2018-07-07T20:25:45.119Z,62.59
2018-07-07T20:26:45.103Z,62.48
2018-07-07T20:27:45.103Z,62.59
2018-07-07T20:28:45.103Z,62.18
2018-07-07T20:29:45.105Z,62.18
2018-07-07T20:30:45.117Z,62.38
2018-07-07T20:31:43.513Z,62.48
2018-07-07T20:32:45.104Z,62.08
2018-07-07T20:33:45.104Z,62.29
2018-07-07T20:34:45.104Z,61.99
2018-07-07T20:35:45.105Z,61.99
2018-07-07T20:36:45.119Z,61.69
2018-07-07T20:37:45.105Z,60.99
2018-07-07T20:38:45.105Z,60.99
2018-07-07T20:39:45.108Z,61.58
2018-07-07T20:40:45.107Z,61.61
2018-07-07T20:41:45.121Z,62.38
2018-07-07T20:42:43.392Z,62.18
2018-07-07T20:43:45.106Z,61.39
2018-07-07T20:44:45.106Z,62.18
2018-07-07T20:45:45.107Z,62.48
2018-07-07T20:46:45.121Z,62.08
2018-07-07T20:47:45.108Z,61.49
2018-07-07T20:48:45.107Z,61.82
2018-07-07T20:49:45.108Z,62.21
2018-07-07T20:50:45.108Z,62.21
2018-07-07T20:51:45.123Z,62.61
2018-07-07T20:52:45.120Z,62.12
2018-07-07T20:53:43.274Z,62.31
2018-07-07T20:54:45.110Z,62.41
2018-07-07T20:55:45.111Z,62.21
2018-07-07T20:56:45.125Z,62.01
2018-07-07T20:57:45.111Z,62.61
2018-07-07T20:58:45.111Z,62.12
2018-07-07T20:59:45.110Z,62.01
2018-07-07T21:00:45.113Z,62.71
2018-07-07T21:01:45.148Z,62.21
2018-07-07T21:02:45.111Z,62.41
2018-07-07T21:03:45.111Z,62.01
2018-07-07T21:04:43.150Z,62.21
2018-07-07T21:05:45.112Z,61.71
2018-07-07T21:06:45.126Z,61.52
2018-07-07T21:07:44.612Z,61.91
2018-07-07T21:08:44.612Z,61.71
2018-07-07T21:09:44.612Z,62.24
2018-07-07T21:10:44.614Z,62.34
2018-07-07T21:11:44.614Z,61.44
2018-07-07T21:12:44.627Z,62.04
2018-07-07T21:13:44.614Z,62.15
2018-07-07T21:14:44.613Z,62.24
2018-07-07T21:15:44.614Z,62.34
2018-07-07T21:16:44.629Z,62.71
2018-07-07T21:17:45.615Z,62.64
2018-07-07T21:18:44.618Z,62.34
2018-07-07T21:19:44.615Z,62.54
2018-07-07T21:20:44.615Z,62.45
2018-07-07T21:21:44.615Z,62.34
2018-07-07T21:22:44.630Z,62.45
2018-07-07T21:23:44.698Z,62.54
2018-07-07T21:24:44.616Z,62.45
2018-07-07T21:25:44.616Z,62.24
2018-07-07T21:26:44.617Z,62.34
2018-07-07T21:27:44.631Z,63.04
2018-07-07T21:28:44.626Z,63.04
2018-07-07T21:29:44.618Z,62.94
2018-07-07T21:30:44.617Z,62.45
2018-07-07T21:31:44.617Z,62.74
2018-07-07T21:32:44.634Z,62.74
2018-07-07T21:33:44.618Z,62.84
2018-07-07T21:34:44.618Z,62.64
2018-07-07T21:35:44.619Z,63.14
2018-07-07T21:36:44.619Z,63.74
2018-07-07T21:37:44.637Z,63.64
2018-07-07T21:38:44.623Z,62.84
2018-07-07T21:39:44.619Z,63.24
2018-07-07T21:40:44.620Z,62.94
2018-07-07T21:41:44.620Z,63.14
2018-07-07T21:42:44.636Z,63.24
2018-07-07T21:43:45.620Z,62.84
2018-07-07T21:44:44.621Z,62.54
2018-07-07T21:45:44.622Z,62.54
2018-07-07T21:46:44.637Z,62.74
2018-07-07T21:47:44.636Z,62.24
2018-07-07T21:48:52.402Z,62.34
2018-07-07T21:49:42.665Z,62.54
2018-07-07T21:50:42.654Z,62.45
2018-07-07T21:51:42.642Z,62.84
2018-07-07T21:52:42.647Z,62.04
2018-07-07T21:53:42.691Z,62.57
2018-07-07T21:54:42.612Z,62.54
2018-07-07T21:55:42.600Z,61.25
2018-07-07T21:56:42.592Z,62.15
2018-07-07T21:57:42.595Z,62.18
2018-07-07T21:58:42.613Z,61.65
2018-07-07T21:59:44.164Z,61.77
2018-07-07T22:00:44.168Z,61.35
2018-07-07T22:01:44.162Z,62.48
2018-07-07T22:02:44.226Z,62.45
2018-07-07T22:03:44.163Z,62.18
2018-07-07T22:04:44.163Z,62.27
2018-07-07T22:05:44.163Z,62.57
2018-07-07T22:06:44.164Z,62.18
2018-07-07T22:07:44.184Z,62.67
2018-07-07T22:08:44.164Z,62.67
2018-07-07T22:09:44.169Z,62.57
2018-07-07T22:10:44.170Z,62.57
2018-07-07T22:11:43.172Z,62.67
2018-07-07T22:12:44.181Z,62.27
2018-07-07T22:13:44.166Z,62.48
2018-07-07T22:14:44.165Z,62.67
2018-07-07T22:15:44.166Z,62.37
2018-07-07T22:16:44.175Z,62.37
2018-07-07T22:17:42.387Z,62.67
2018-07-07T22:18:44.166Z,62.67
2018-07-07T22:19:45.166Z,62.77
2018-07-07T22:20:44.166Z,62.48
2018-07-07T22:21:44.166Z,62.57
2018-07-07T22:22:44.168Z,62.57
2018-07-07T22:23:44.181Z,62.48
2018-07-07T22:24:44.168Z,62.57
2018-07-07T22:25:44.169Z,62.67
2018-07-07T22:26:44.167Z,62.57
2018-07-07T22:27:44.167Z,62.18
2018-07-07T22:28:44.182Z,62.27
2018-07-07T22:29:44.172Z,62.57
2018-07-07T22:30:44.168Z,62.48
2018-07-07T22:31:44.168Z,62.67
2018-07-07T22:32:44.171Z,62.48
2018-07-07T22:33:44.186Z,62.48
2018-07-07T22:34:44.170Z,62.48
2018-07-07T22:35:43.669Z,62.67
2018-07-07T22:36:43.670Z,62.57
2018-07-07T22:37:43.671Z,62.77
2018-07-07T22:38:43.686Z,62.67
2018-07-07T22:39:43.670Z,62.37
2018-07-07T22:40:42.119Z,62.67
2018-07-07T22:41:43.672Z,62.48
2018-07-07T22:42:43.670Z,62.57
2018-07-07T22:43:43.684Z,62.87
2018-07-07T22:44:43.670Z,62.48
2018-07-07T22:45:43.670Z,62.40
2018-07-07T22:46:43.671Z,62.48
2018-07-07T22:47:43.672Z,62.77
2018-07-07T22:48:43.688Z,62.67
2018-07-07T22:49:43.671Z,62.40
2018-07-07T22:50:43.672Z,62.48
2018-07-07T22:51:43.671Z,62.77
2018-07-07T22:52:43.672Z,63.10
2018-07-07T22:53:43.686Z,62.87
2018-07-07T22:54:43.675Z,62.87
2018-07-07T22:55:43.676Z,62.37
2018-07-07T22:56:43.673Z,62.67
2018-07-07T22:57:42.680Z,62.90
2018-07-07T22:58:43.673Z,62.57
2018-07-07T22:59:43.689Z,62.67
2018-07-07T23:00:43.674Z,62.27
2018-07-07T23:01:43.674Z,62.87
2018-07-07T23:02:43.675Z,63.07
2018-07-07T23:03:43.674Z,63.07
2018-07-07T23:04:43.689Z,62.97
2018-07-07T23:05:43.675Z,63.00
2018-07-07T23:06:43.676Z,62.90
2018-07-07T23:07:43.676Z,63.20
2018-07-07T23:08:43.676Z,63.30
2018-07-07T23:09:43.694Z,63.20
2018-07-07T23:10:43.676Z,63.30
2018-07-07T23:11:43.676Z,63.07
2018-07-07T23:12:43.676Z,63.20
2018-07-07T23:13:43.676Z,63.00
2018-07-07T23:14:43.693Z,63.07
2018-07-07T23:15:43.678Z,63.00
2018-07-07T23:16:43.677Z,63.30
2018-07-07T23:17:43.678Z,63.00
2018-07-07T23:18:43.678Z,63.40
2018-07-07T23:19:43.693Z,63.10
2018-07-07T23:20:41.689Z,63.60
2018-07-07T23:21:43.178Z,62.90
2018-07-07T23:22:43.179Z,63.20
2018-07-07T23:23:43.179Z,62.90
2018-07-07T23:24:43.197Z,63.10
2018-07-07T23:25:43.202Z,62.90
2018-07-07T23:26:43.180Z,63.20
2018-07-07T23:27:43.180Z,63.00
2018-07-07T23:28:43.180Z,63.00
2018-07-07T23:29:43.196Z,63.20
2018-07-07T23:30:43.180Z,63.10
2018-07-07T23:31:44.183Z,63.20
2018-07-07T23:32:43.180Z,63.10
2018-07-07T23:33:43.181Z,63.40
2018-07-07T23:34:43.198Z,63.20
2018-07-07T23:35:43.181Z,63.50
2018-07-07T23:36:43.182Z,62.90
2018-07-07T23:37:43.182Z,63.30
2018-07-07T23:38:43.182Z,63.10
2018-07-07T23:39:43.198Z,63.50
2018-07-07T23:40:43.191Z,63.00
2018-07-07T23:41:43.182Z,63.23
2018-07-07T23:42:43.187Z,63.40
2018-07-07T23:43:43.186Z,63.13
2018-07-07T23:44:43.198Z,63.60
2018-07-07T23:45:43.184Z,63.00
2018-07-07T23:46:43.183Z,63.00
2018-07-07T23:47:43.184Z,63.53
2018-07-07T23:48:43.184Z,63.23
2018-07-07T23:49:43.199Z,63.23
2018-07-07T23:50:43.184Z,63.33
2018-07-07T23:51:43.184Z,63.53
2018-07-07T23:52:43.185Z,63.63
2018-07-07T23:53:43.185Z,63.23
2018-07-07T23:54:43.200Z,63.53
2018-07-07T23:55:43.185Z,63.23
2018-07-07T23:56:43.185Z,63.53
2018-07-07T23:57:43.185Z,63.43
2018-07-07T23:58:43.186Z,62.93
2018-07-07T23:59:43.185Z,62.93
